createdAt,value
2018-01-26T00:01:31.324Z,99976.38
2018-01-26T00:03:59.126Z,99975.20
2018-01-26T00:06:26.565Z,99979.77
2018-01-26T00:08:54.000Z,99994.67
2018-01-26T00:11:21.466Z,99994.35
2018-01-26T00:13:48.937Z,99997.23
2018-01-26T00:16:16.390Z,100000.27
2018-01-26T00:18:43.882Z,100000.13
2018-01-26T00:21:11.336Z,109178.30
2018-01-26T00:23:38.806Z,109178.30
2018-01-26T00:26:06.293Z,109178.30
2018-01-26T00:28:33.757Z,109178.30
2018-01-26T00:31:01.229Z,109178.30
2018-01-26T00:33:28.842Z,109178.30
2018-01-26T00:35:56.356Z,109178.30
2018-01-26T00:44:28.890Z,109178.30
2018-01-26T00:46:56.425Z,109178.30
2018-01-26T00:49:24.101Z,109178.30
2018-01-26T00:51:51.620Z,109178.30
2018-01-26T00:54:19.098Z,109178.30
2018-01-26T00:56:46.549Z,109178.30
2018-01-26T00:59:14.954Z,109178.30
2018-01-26T01:01:42.508Z,109178.30
2018-01-26T01:04:11.930Z,109178.30
2018-01-26T01:06:39.394Z,109178.30
2018-01-26T01:09:06.863Z,109178.30
2018-01-26T01:11:34.360Z,109178.30
2018-01-26T01:14:01.837Z,109178.30
2018-01-26T01:16:29.463Z,109178.30
2018-01-26T01:18:56.984Z,109178.30
2018-01-26T01:21:28.230Z,109178.30
2018-01-26T01:23:56.054Z,109178.30
2018-01-26T01:26:24.267Z,109178.30
2018-01-26T01:28:51.737Z,109178.30
2018-01-26T01:31:19.274Z,109178.30
2018-01-26T01:33:46.737Z,109178.30
2018-01-26T01:36:14.206Z,109178.30
2018-01-26T01:38:41.632Z,109178.30
2018-01-26T01:41:09.090Z,109178.30
2018-01-26T01:43:36.558Z,109178.30
2018-01-26T01:46:04.037Z,109178.30
2018-01-26T01:48:31.510Z,109178.30
2018-01-26T01:50:58.986Z,109178.30
2018-01-26T01:53:26.422Z,109178.30
2018-01-26T01:55:54.349Z,109178.30
2018-01-26T01:58:21.792Z,109178.30
2018-01-26T02:00:49.249Z,109178.30
2018-01-26T02:03:16.698Z,109178.30
2018-01-26T02:05:44.150Z,109178.30
2018-01-26T02:08:11.599Z,109178.30
2018-01-26T02:10:39.078Z,109178.30
2018-01-26T02:13:06.536Z,109178.30
2018-01-26T02:15:33.976Z,109178.30
2018-01-26T02:18:01.466Z,109178.30
2018-01-26T02:20:28.954Z,109178.30
2018-01-26T02:22:56.410Z,109178.30
2018-01-26T02:25:41.216Z,109178.30
2018-01-26T02:28:08.673Z,109178.30
2018-01-26T02:30:36.135Z,109178.30
2018-01-26T02:33:03.602Z,109178.30
2018-01-26T02:35:31.044Z,109178.30
2018-01-26T02:38:16.081Z,109178.30
2018-01-26T02:40:43.524Z,109178.30
2018-01-26T02:43:11.003Z,109178.30
2018-01-26T02:45:38.470Z,109178.30
2018-01-26T02:48:05.952Z,109178.30
2018-01-26T02:50:33.393Z,109178.30
2018-01-26T02:53:00.854Z,109178.30
2018-01-26T02:55:28.323Z,109178.30
2018-01-26T02:57:55.877Z,109178.30
2018-01-26T03:00:23.318Z,109178.30
2018-01-26T03:02:50.857Z,109178.30
2018-01-26T03:05:18.318Z,109178.30
2018-01-26T03:07:45.782Z,109178.30
2018-01-26T03:10:13.231Z,109178.30
2018-01-26T03:12:40.697Z,109178.30
2018-01-26T03:15:08.137Z,109178.30
2018-01-26T03:17:35.582Z,109178.30
2018-01-26T03:20:03.039Z,109178.30
2018-01-26T03:22:30.480Z,109178.30
2018-01-26T03:24:57.977Z,109178.30
2018-01-26T03:27:25.454Z,109178.30
2018-01-26T03:29:53.046Z,109178.30
2018-01-26T03:32:20.493Z,109178.30
2018-01-26T03:34:47.963Z,109178.30
2018-01-26T03:37:15.446Z,109178.30
2018-01-26T03:39:42.936Z,109178.30
2018-01-26T03:42:10.377Z,109178.30
2018-01-26T03:44:37.857Z,109178.30
2018-01-26T03:47:06.326Z,109178.30
2018-01-26T03:49:33.780Z,100064.11
2018-01-26T03:52:01.230Z,109178.30
2018-01-26T03:54:28.697Z,109178.30
2018-01-26T03:56:56.169Z,109178.30
2018-01-26T03:59:23.670Z,109178.30
2018-01-26T04:01:51.114Z,109178.30
2018-01-26T04:04:18.578Z,109178.30
2018-01-26T04:06:46.058Z,109178.30
2018-01-26T04:09:13.539Z,109178.30
2018-01-26T04:11:41.113Z,109178.30
2018-01-26T04:14:08.607Z,109178.30
2018-01-26T04:16:36.085Z,100095.84
2018-01-26T04:19:03.623Z,100095.83
2018-01-26T04:21:31.089Z,100090.98
2018-01-26T04:23:58.551Z,100090.39
2018-01-26T04:26:26.084Z,100094.77
2018-01-26T04:28:53.681Z,100098.39
2018-01-26T04:31:21.248Z,100103.87
2018-01-26T04:33:48.732Z,100095.06
2018-01-26T04:36:16.258Z,100105.82
2018-01-26T04:38:43.830Z,100109.58
2018-01-26T04:41:11.324Z,100105.31
2018-01-26T04:43:38.840Z,100102.77
2018-01-26T04:46:06.281Z,100103.98
2018-01-26T04:48:33.708Z,100108.81
2018-01-26T04:51:01.152Z,100110.61
2018-01-26T04:53:28.585Z,100114.62
2018-01-26T04:55:56.037Z,100124.02
2018-01-26T04:58:23.481Z,100129.55
2018-01-26T05:00:50.920Z,100135.86
2018-01-26T05:03:18.676Z,100136.11
2018-01-26T05:05:46.141Z,100140.77
2018-01-26T05:08:13.842Z,100137.21
2018-01-26T05:10:41.323Z,100132.41
2018-01-26T05:13:09.095Z,100141.80
2018-01-26T05:15:36.585Z,100140.89
2018-01-26T05:18:04.211Z,100142.33
2018-01-26T05:20:31.659Z,100145.28
2018-01-26T05:36:01.913Z,100151.40
2018-01-26T05:38:29.362Z,100153.66
2018-01-26T05:40:56.898Z,100158.56
2018-01-26T05:43:24.351Z,100156.91
2018-01-26T05:45:51.787Z,100157.09
2018-01-26T05:48:20.275Z,100161.00
2018-01-26T05:50:47.715Z,100166.08
2018-01-26T05:53:15.337Z,100172.05
2018-01-26T05:55:42.772Z,100174.06
2018-01-26T05:58:10.246Z,100177.13
2018-01-26T06:00:37.781Z,100182.87
2018-01-26T06:03:05.311Z,100182.28
2018-01-26T06:05:32.754Z,100183.86
2018-01-26T06:08:01.310Z,100188.70
2018-01-26T06:10:28.752Z,100185.25
2018-01-26T06:12:57.080Z,100197.52
2018-01-26T06:15:24.540Z,100194.66
2018-01-26T06:17:51.978Z,100203.58
2018-01-26T06:20:20.465Z,100201.56
2018-01-26T06:22:47.921Z,100194.60
2018-01-26T06:25:15.370Z,100203.05
2018-01-26T06:27:42.885Z,100201.91
2018-01-26T06:30:10.363Z,100212.00
2018-01-26T06:32:38.034Z,100208.48
2018-01-26T06:35:05.538Z,100201.97
2018-01-26T06:37:33.018Z,100196.63
2018-01-26T06:40:00.470Z,100192.47
2018-01-26T06:42:27.913Z,100193.30
2018-01-26T06:44:55.931Z,100202.54
2018-01-26T06:47:23.394Z,100197.00
2018-01-26T06:49:50.854Z,100195.67
2018-01-26T06:52:18.312Z,100196.19
2018-01-26T06:54:45.897Z,100202.42
2018-01-26T06:57:13.368Z,100204.44
2018-01-26T06:59:40.835Z,100209.87
2018-01-26T07:02:08.355Z,100213.90
2018-01-26T07:04:35.817Z,100215.78
2018-01-26T07:07:03.263Z,100226.16
2018-01-26T07:09:30.828Z,100226.45
2018-01-26T07:11:59.197Z,100222.36
2018-01-26T07:14:26.898Z,100233.03
2018-01-26T07:16:54.594Z,100234.16
2018-01-26T07:19:22.077Z,100235.63
2018-01-26T07:21:49.488Z,100231.73
2018-01-26T07:24:17.026Z,100227.91
2018-01-26T07:26:45.512Z,100234.08
2018-01-26T07:29:14.184Z,100241.46
2018-01-26T07:31:41.732Z,100246.02
2018-01-26T07:34:09.276Z,100245.18
2018-01-26T07:36:36.721Z,100254.54
2018-01-26T07:39:04.179Z,100249.34
2018-01-26T07:41:31.652Z,100262.05
2018-01-26T07:43:59.141Z,100260.44
2018-01-26T07:46:26.637Z,100263.11
2018-01-26T07:48:55.986Z,100263.91
2018-01-26T07:51:23.658Z,100267.52
2018-01-26T07:53:51.092Z,100275.58
2018-01-26T07:56:18.519Z,100273.02
2018-01-26T07:58:47.883Z,100273.81
2018-01-26T08:01:17.443Z,100276.55
2018-01-26T08:03:45.034Z,109178.30
2018-01-26T08:06:12.475Z,100280.40
2018-01-26T08:08:39.966Z,100279.59
2018-01-26T08:11:07.410Z,100281.59
2018-01-26T08:13:35.019Z,100282.56
2018-01-26T08:16:02.565Z,100281.67
2018-01-26T08:18:30.016Z,100285.75
2018-01-26T08:20:57.808Z,100282.05
2018-01-26T08:23:26.633Z,100284.51
2018-01-26T08:25:54.221Z,100295.42
2018-01-26T08:28:21.695Z,100298.50
2018-01-26T08:30:49.189Z,100307.98
2018-01-26T08:33:16.940Z,100297.66
2018-01-26T08:35:44.388Z,100299.61
2018-01-26T08:38:11.837Z,100296.58
2018-01-26T08:40:39.273Z,100297.96
2018-01-26T08:43:06.758Z,100304.83
2018-01-26T08:45:34.258Z,100294.73
2018-01-26T08:48:01.976Z,100294.03
2018-01-26T08:50:29.466Z,100291.25
2018-01-26T08:52:57.035Z,100301.17
2018-01-26T08:55:25.117Z,100302.57
2018-01-26T08:57:52.553Z,100303.00
2018-01-26T09:00:20.056Z,100314.09
2018-01-26T09:02:47.490Z,100321.42
2018-01-26T09:05:14.941Z,100322.03
2018-01-26T09:07:42.376Z,100321.05
2018-01-26T09:10:09.828Z,100324.48
2018-01-26T09:12:37.256Z,100325.16
2018-01-26T09:15:04.875Z,100324.59
2018-01-26T09:17:32.296Z,100327.58
2018-01-26T09:20:00.058Z,100323.53
2018-01-26T09:22:27.586Z,100327.58
2018-01-26T09:24:55.054Z,100325.87
2018-01-26T09:27:22.538Z,100326.87
2018-01-26T09:29:50.038Z,100329.09
2018-01-26T09:32:17.494Z,100332.91
2018-01-26T09:34:44.917Z,100337.32
2018-01-26T09:37:12.365Z,100342.19
2018-01-26T09:39:39.871Z,100344.33
2018-01-26T09:42:07.326Z,100350.13
2018-01-26T09:44:34.760Z,100359.25
2018-01-26T09:47:02.198Z,100360.93
2018-01-26T09:49:29.715Z,100374.04
2018-01-26T09:51:57.301Z,100374.80
2018-01-26T09:54:24.819Z,100379.47
2018-01-26T09:56:52.257Z,100380.61
2018-01-26T09:59:19.763Z,100384.09
2018-01-26T10:01:47.221Z,100380.21
2018-01-26T10:04:14.678Z,100374.22
2018-01-26T10:06:42.161Z,100377.86
2018-01-26T10:09:09.618Z,100375.27
2018-01-26T10:11:37.073Z,100371.36
2018-01-26T10:14:04.569Z,100373.73
2018-01-26T10:16:32.020Z,100376.43
2018-01-26T10:18:59.491Z,100369.98
2018-01-26T10:21:26.945Z,100373.92
2018-01-26T10:23:54.426Z,100384.58
2018-01-26T10:26:21.900Z,100373.41
2018-01-26T10:28:49.391Z,100383.63
2018-01-26T10:31:16.837Z,100387.39
2018-01-26T10:33:44.313Z,100377.94
2018-01-26T10:36:11.777Z,100379.80
2018-01-26T10:38:39.254Z,100375.47
2018-01-26T10:41:06.686Z,100376.72
2018-01-26T10:43:34.113Z,100379.50
2018-01-26T10:46:01.647Z,100375.26
2018-01-26T10:48:29.961Z,100379.33
2018-01-26T10:50:57.406Z,100383.11
2018-01-26T10:53:24.905Z,100389.85
2018-01-26T10:55:52.351Z,100387.47
2018-01-26T10:58:19.986Z,100387.77
2018-01-26T11:00:47.442Z,100388.50
2018-01-26T11:03:14.987Z,100392.00
2018-01-26T11:05:42.489Z,100392.86
2018-01-26T11:08:10.145Z,100391.00
2018-01-26T11:10:37.602Z,100397.81
2018-01-26T11:13:05.032Z,100398.05
2018-01-26T11:15:32.483Z,100399.27
2018-01-26T11:17:59.968Z,100392.31
2018-01-26T11:20:27.396Z,100401.84
2018-01-26T11:22:54.852Z,100406.27
2018-01-26T11:25:22.362Z,100403.95
2018-01-26T11:27:49.810Z,100406.24
2018-01-26T11:30:17.233Z,100408.59
2018-01-26T11:32:44.693Z,100407.55
2018-01-26T11:35:12.139Z,100410.33
2018-01-26T11:37:39.629Z,100416.41
2018-01-26T11:40:07.061Z,100422.81
2018-01-26T11:42:34.510Z,100421.44
2018-01-26T11:45:01.963Z,100422.28
2018-01-26T11:47:29.425Z,100423.89
2018-01-26T11:49:57.407Z,100423.55
2018-01-26T11:52:24.918Z,100427.30
2018-01-26T11:54:52.370Z,100423.53
2018-01-26T11:57:19.873Z,100420.42
2018-01-26T11:59:47.326Z,100420.06
2018-01-26T12:02:14.811Z,100425.59
2018-01-26T12:04:42.245Z,100426.03
2018-01-26T12:07:09.702Z,100421.20
2018-01-26T12:09:37.132Z,100430.37
2018-01-26T12:12:04.612Z,100434.66
2018-01-26T12:14:32.058Z,100427.41
2018-01-26T12:16:59.574Z,100428.10
2018-01-26T12:19:27.082Z,100420.62
2018-01-26T12:21:54.535Z,100425.62
2018-01-26T12:24:21.992Z,100423.98
2018-01-26T12:26:49.425Z,100423.78
2018-01-26T12:29:16.930Z,100422.49
2018-01-26T12:31:44.710Z,100422.80
2018-01-26T12:34:12.254Z,100420.16
2018-01-26T12:36:39.689Z,100426.27
2018-01-26T12:39:07.128Z,100426.01
2018-01-26T12:41:34.578Z,100429.28
2018-01-26T12:44:02.366Z,100435.05
2018-01-26T12:46:29.826Z,100436.66
2018-01-26T12:49:01.560Z,100435.50
2018-01-26T12:51:31.548Z,100432.20
2018-01-26T12:53:59.066Z,100441.91
2018-01-26T12:56:27.355Z,100449.44
2018-01-26T12:58:55.128Z,100447.27
2018-01-26T13:01:22.655Z,100445.56
2018-01-26T13:03:50.100Z,100450.98
2018-01-26T13:06:17.649Z,100457.27
2018-01-26T13:08:45.350Z,100460.51
2018-01-26T13:11:13.003Z,100462.88
2018-01-26T13:13:40.487Z,100465.50
2018-01-26T13:16:08.342Z,100462.97
2018-01-26T13:18:35.982Z,100464.25
2018-01-26T13:21:03.472Z,100461.98
2018-01-26T13:23:30.973Z,100466.83
2018-01-26T13:26:00.093Z,100463.70
2018-01-26T13:28:27.770Z,100462.34
2018-01-26T13:30:55.262Z,100470.70
2018-01-26T13:33:22.684Z,100470.12
2018-01-26T13:35:50.129Z,100473.92
2018-01-26T13:38:17.736Z,100468.47
2018-01-26T13:40:45.209Z,100473.11
2018-01-26T13:43:12.709Z,100473.92
2018-01-26T13:45:40.168Z,100478.45
2018-01-26T13:48:07.608Z,100471.50
2018-01-26T13:50:35.058Z,100484.39
2018-01-26T13:53:02.521Z,100484.72
2018-01-26T13:55:30.030Z,100491.69
2018-01-26T13:57:58.737Z,100496.23
2018-01-26T14:00:26.226Z,100503.42
2018-01-26T14:02:53.629Z,100511.72
2018-01-26T14:05:21.081Z,100510.44
2018-01-26T14:07:48.537Z,100517.78
2018-01-26T14:10:15.978Z,100525.92
2018-01-26T14:12:43.485Z,100529.61
2018-01-26T14:15:10.925Z,100527.97
2018-01-26T14:17:38.378Z,100535.94
2018-01-26T14:20:06.199Z,100541.31
2018-01-26T14:22:34.411Z,100548.55
2018-01-26T14:25:01.891Z,100546.19
2018-01-26T14:27:29.354Z,100550.53
2018-01-26T14:29:56.783Z,100544.56
2018-01-26T14:32:24.664Z,100548.00
2018-01-26T14:34:52.099Z,100555.67
2018-01-26T14:37:19.539Z,100556.80
2018-01-26T14:39:47.001Z,100563.91
2018-01-26T14:42:14.480Z,100565.88
2018-01-26T14:44:41.908Z,100566.42
2018-01-26T14:47:09.361Z,100572.39
2018-01-26T14:49:36.805Z,100577.23
2018-01-26T14:52:04.277Z,100575.59
2018-01-26T14:54:31.722Z,100577.48
2018-01-26T14:56:59.193Z,100586.44
2018-01-26T14:59:26.627Z,100584.97
2018-01-26T15:01:54.097Z,100592.09
2018-01-26T15:04:21.946Z,100594.97
2018-01-26T15:06:49.390Z,100601.27
2018-01-26T15:09:16.889Z,100607.41
2018-01-26T15:11:44.357Z,100608.52
2018-01-26T15:14:11.836Z,100607.81
2018-01-26T15:16:39.281Z,100611.23
2018-01-26T15:19:06.778Z,100605.84
2018-01-26T15:21:34.228Z,100609.87
2018-01-26T15:24:01.674Z,100605.22
2018-01-26T15:26:29.174Z,100606.34
2018-01-26T15:28:56.742Z,100611.98
2018-01-26T15:31:24.193Z,100616.06
2018-01-26T15:33:51.646Z,100620.45
2018-01-26T15:36:19.108Z,100626.09
2018-01-26T15:38:46.606Z,100626.13
2018-01-26T15:41:14.105Z,100611.51
2018-01-26T15:43:41.579Z,100616.92
2018-01-26T15:46:09.017Z,100621.98
2018-01-26T15:48:36.457Z,100624.25
2018-01-26T15:51:04.060Z,100624.73
2018-01-26T15:53:31.505Z,100625.81
2018-01-26T15:55:59.927Z,100620.47
2018-01-26T15:58:28.951Z,100627.84
2018-01-26T16:00:56.392Z,100630.91
2018-01-26T16:03:23.821Z,100643.16
2018-01-26T16:05:51.275Z,100650.00
2018-01-26T16:08:18.721Z,100647.48
2018-01-26T16:10:46.647Z,100655.23
2018-01-26T16:13:14.084Z,100654.67
2018-01-26T16:29:03.292Z,100679.70
2018-01-26T16:31:30.752Z,100687.07
2018-01-26T16:33:58.545Z,100688.14
2018-01-26T16:36:26.018Z,100687.80
2018-01-26T16:38:53.438Z,100693.20
2018-01-26T16:41:20.889Z,100696.92
2018-01-26T16:43:48.317Z,100701.61
2018-01-26T16:46:15.777Z,100702.27
2018-01-26T16:48:43.243Z,100710.38
2018-01-26T16:51:10.729Z,100711.21
2018-01-26T16:53:38.162Z,100715.82
2018-01-26T16:56:05.634Z,100725.05
2018-01-26T16:58:33.092Z,100725.08
2018-01-26T17:01:00.543Z,100730.27
2018-01-26T17:03:28.548Z,100732.31
2018-01-26T17:05:56.105Z,100736.51
2018-01-26T17:08:23.692Z,100738.63
2018-01-26T17:10:51.147Z,100742.83
2018-01-26T17:13:18.655Z,100743.61
2018-01-26T17:15:46.151Z,100741.30
2018-01-26T17:18:13.621Z,100743.03
2018-01-26T17:20:41.096Z,100745.41
2018-01-26T17:23:08.770Z,100747.28
2018-01-26T17:25:36.205Z,100744.84
2018-01-26T17:28:03.657Z,100754.46
2018-01-26T17:30:31.274Z,100754.14
2018-01-26T17:32:58.742Z,100765.05
2018-01-26T17:35:26.206Z,100765.31
2018-01-26T17:37:53.718Z,100766.17
2018-01-26T17:40:21.275Z,100768.50
2018-01-26T17:42:48.750Z,100773.28
2018-01-26T17:45:16.185Z,100779.73
2018-01-26T17:47:43.645Z,100777.20
2018-01-26T17:50:11.142Z,100786.43
2018-01-26T17:52:38.635Z,100791.53
2018-01-26T17:55:06.065Z,100799.03
2018-01-26T17:57:33.531Z,100805.58
2018-01-26T18:00:00.972Z,100807.28
2018-01-26T18:02:30.808Z,100807.08
2018-01-26T18:04:58.955Z,100809.72
2018-01-26T18:07:26.395Z,100811.62
2018-01-26T18:09:54.624Z,100809.31
2018-01-26T18:12:22.077Z,100813.52
2018-01-26T18:14:49.538Z,100822.00
2018-01-26T18:17:16.989Z,100818.29
2018-01-26T18:19:44.441Z,100826.87
2018-01-26T18:22:11.891Z,100837.45
2018-01-26T18:24:39.366Z,100839.86
2018-01-26T18:27:06.840Z,100841.84
2018-01-26T18:29:34.294Z,100840.14
2018-01-26T18:32:01.737Z,100844.23
2018-01-26T18:34:29.282Z,100855.35
2018-01-26T18:36:56.773Z,100862.59
2018-01-26T18:39:24.228Z,100865.32
2018-01-26T18:41:51.841Z,100867.73
2018-01-26T18:44:19.273Z,100872.58
2018-01-26T18:46:46.771Z,100879.53
2018-01-26T18:49:14.245Z,100876.14
2018-01-26T18:51:41.702Z,100868.60
2018-01-26T18:54:09.165Z,100866.36
2018-01-26T18:56:36.613Z,100866.48
2018-01-26T18:59:04.047Z,100870.98
2018-01-26T19:01:31.517Z,100873.91
2018-01-26T19:03:59.097Z,100884.00
2018-01-26T19:06:26.575Z,100882.11
2018-01-26T19:08:54.006Z,100892.20
2018-01-26T19:11:21.568Z,100890.28
2018-01-26T19:13:49.123Z,100894.81
2018-01-26T19:16:16.613Z,100893.66
2018-01-26T19:18:44.050Z,100902.29
2018-01-26T19:21:11.667Z,100905.36
2018-01-26T19:23:39.153Z,100907.02
2018-01-26T19:26:07.632Z,100917.84
2018-01-26T19:28:35.108Z,100918.50
2018-01-26T19:31:02.556Z,100920.12
2018-01-26T19:33:30.445Z,100924.86
2018-01-26T19:35:57.932Z,100930.84
2018-01-26T19:38:25.385Z,100933.18
2018-01-26T19:40:52.821Z,100935.95
2018-01-26T19:43:20.289Z,100941.77
2018-01-26T19:45:47.734Z,100946.23
2018-01-26T19:48:15.203Z,100948.80
2018-01-26T19:50:42.652Z,100945.52
2018-01-26T19:53:10.184Z,100954.06
2018-01-26T19:55:37.624Z,100952.45
2018-01-26T19:58:05.078Z,100953.19
2018-01-26T20:00:32.727Z,100956.64
2018-01-26T20:03:12.334Z,100955.57
2018-01-26T20:05:49.147Z,100948.03
2018-01-26T20:08:28.751Z,100954.44
2018-01-26T20:10:56.179Z,100956.84
2018-01-26T20:13:27.603Z,100962.38
2018-01-26T20:15:55.055Z,100967.00
2018-01-26T20:18:22.584Z,100970.30
2018-01-26T20:20:50.030Z,100967.45
2018-01-26T20:23:17.557Z,100971.77
2018-01-26T20:25:45.044Z,100978.34
2018-01-26T20:28:12.499Z,100983.91
2018-01-26T20:30:39.978Z,100987.59
2018-01-26T20:33:07.424Z,100988.36
2018-01-26T20:35:34.891Z,100990.27
2018-01-26T20:38:02.348Z,100993.48
2018-01-26T20:40:29.843Z,101004.36
2018-01-26T20:42:57.274Z,100999.11
2018-01-26T20:45:24.739Z,100998.91
2018-01-26T20:47:52.204Z,100996.33
2018-01-26T20:50:19.750Z,100990.06
2018-01-26T20:52:47.195Z,100997.33
2018-01-26T20:55:14.655Z,101003.99
2018-01-26T20:57:42.130Z,101015.41
2018-01-26T21:00:09.644Z,101005.86
2018-01-26T21:02:37.093Z,101016.58
2018-01-26T21:05:04.584Z,101019.09
2018-01-26T21:07:32.017Z,101028.36
2018-01-26T21:09:59.781Z,101034.19
2018-01-26T21:12:27.245Z,101036.05
2018-01-26T21:14:54.693Z,101022.77
2018-01-26T21:17:22.195Z,101023.87
2018-01-26T21:19:49.666Z,101030.84
2018-01-26T21:22:17.113Z,101033.01
2018-01-26T21:24:44.627Z,101035.39
2018-01-26T21:27:12.174Z,101034.85
2018-01-26T21:29:39.621Z,101034.42
2018-01-26T21:32:07.099Z,101039.48
2018-01-26T21:34:34.533Z,101042.42
2018-01-26T21:37:02.006Z,101047.05
2018-01-26T21:39:29.826Z,101050.92
2018-01-26T21:41:57.293Z,101048.41
2018-01-26T21:44:24.806Z,101056.45
2018-01-26T21:46:52.286Z,101059.83
2018-01-26T21:49:19.746Z,101066.77
2018-01-26T21:51:47.183Z,101069.00
2018-01-26T21:54:14.654Z,101071.09
2018-01-26T21:56:42.173Z,101075.73
2018-01-26T21:59:09.649Z,101076.84
2018-01-26T22:01:37.089Z,101079.39
2018-01-26T22:04:04.548Z,101087.66
2018-01-26T22:06:40.645Z,101088.91
2018-01-26T22:09:08.139Z,101084.06
2018-01-26T22:11:36.790Z,101095.08
2018-01-26T22:14:04.325Z,101095.98
2018-01-26T22:16:31.905Z,101099.14
2018-01-26T22:18:59.926Z,101100.20
2018-01-26T22:21:27.458Z,101111.66
2018-01-26T22:23:56.978Z,101118.73
2018-01-26T22:26:24.454Z,101117.50
2018-01-26T22:28:51.978Z,101119.34
2018-01-26T22:31:19.469Z,101124.29
2018-01-26T22:33:46.915Z,101129.38
2018-01-26T22:36:14.370Z,101134.33
2018-01-26T22:38:41.818Z,101134.60
2018-01-26T22:41:09.374Z,101145.18
2018-01-26T22:43:36.830Z,101146.78
2018-01-26T22:46:04.300Z,101148.89
2018-01-26T22:48:31.802Z,101156.38
2018-01-26T22:51:00.208Z,101159.71
2018-01-26T22:53:27.665Z,101159.31
2018-01-26T22:55:55.117Z,101165.52
2018-01-26T22:58:22.564Z,101166.79
2018-01-26T23:00:50.025Z,101166.47
2018-01-26T23:03:17.486Z,101169.63
2018-01-26T23:05:44.998Z,101175.92
2018-01-26T23:08:12.832Z,101180.33
2018-01-26T23:10:40.289Z,101177.20
2018-01-26T23:13:07.840Z,101178.35
2018-01-26T23:15:35.312Z,101170.06
2018-01-26T23:18:02.766Z,101175.68
2018-01-26T23:20:30.337Z,101175.95
2018-01-26T23:22:59.135Z,101189.36
2018-01-26T23:25:26.912Z,101185.73
2018-01-26T23:27:54.361Z,101189.01
2018-01-26T23:30:21.917Z,101191.30
2018-01-26T23:32:49.430Z,101191.09
2018-01-26T23:35:16.984Z,101195.67
2018-01-26T23:37:44.492Z,101192.22
2018-01-26T23:40:11.929Z,101191.78
2018-01-26T23:42:39.396Z,101184.20
2018-01-26T23:45:06.845Z,101186.12
2018-01-26T23:47:34.318Z,101179.97
2018-01-26T23:50:01.758Z,101179.50
2018-01-26T23:52:29.260Z,101193.31
2018-01-26T23:54:56.786Z,101197.13
2018-01-26T23:57:24.241Z,101194.21
2018-01-26T23:59:51.756Z,101202.39
